createdAt,value
2022-12-24T00:01:38.159Z,10.50
2022-12-24T00:04:37.069Z,10.50
2022-12-24T00:07:11.156Z,10.50
2022-12-24T00:09:50.919Z,10.50
2022-12-24T00:12:22.981Z,10.50
2022-12-24T00:15:07.954Z,10.50
2022-12-24T00:18:02.675Z,10.50
2022-12-24T00:20:40.180Z,10.60
2022-12-24T00:23:16.946Z,10.60
2022-12-24T00:26:15.178Z,10.60
2022-12-24T00:29:01.351Z,10.60
2022-12-24T00:31:38.244Z,10.60
2022-12-24T00:34:18.450Z,10.50
2022-12-24T00:36:59.997Z,10.40
2022-12-24T00:39:44.009Z,10.40
2022-12-24T00:42:28.342Z,10.30
2022-12-24T00:45:00.653Z,10.30
2022-12-24T00:47:34.560Z,10.30
2022-12-24T00:50:36.641Z,10.30
2022-12-24T00:53:19.237Z,10.30
2022-12-24T00:55:55.990Z,10.30
2022-12-24T00:58:47.343Z,10.30
2022-12-24T01:01:41.765Z,10.30
2022-12-24T01:04:29.627Z,10.30
2022-12-24T01:07:10.359Z,10.30
2022-12-24T01:09:53.559Z,10.40
2022-12-24T01:12:35.963Z,10.40
2022-12-24T01:15:56.052Z,10.50
2022-12-24T01:18:35.317Z,10.50
2022-12-24T01:21:24.974Z,10.50
2022-12-24T01:24:09.413Z,10.50
2022-12-24T01:26:50.503Z,10.60
2022-12-24T01:29:26.195Z,10.60
2022-12-24T01:31:59.962Z,10.60
2022-12-24T01:37:20.668Z,10.60
2022-12-24T01:40:26.233Z,10.60
2022-12-24T01:43:15.323Z,10.60
2022-12-24T01:45:51.500Z,10.60
2022-12-24T01:48:50.507Z,10.60
2022-12-24T01:51:42.077Z,10.60
2022-12-24T01:54:22.522Z,10.60
2022-12-24T01:57:08.661Z,10.60
2022-12-24T01:59:39.786Z,10.60
2022-12-24T02:02:15.412Z,10.60
2022-12-24T02:04:55.511Z,10.60
2022-12-24T02:07:33.295Z,10.60
2022-12-24T02:10:07.081Z,10.60
2022-12-24T02:12:39.656Z,10.60
2022-12-24T02:15:29.635Z,10.60
2022-12-24T02:18:16.443Z,10.60
2022-12-24T02:21:02.239Z,10.50
2022-12-24T02:23:55.505Z,10.50
2022-12-24T02:26:49.967Z,10.50
2022-12-24T02:29:41.061Z,10.60
2022-12-24T02:32:16.179Z,10.60
2022-12-24T02:34:53.395Z,10.60
2022-12-24T02:37:24.468Z,10.70
2022-12-24T02:40:00.734Z,10.70
2022-12-24T02:42:39.398Z,10.70
2022-12-24T02:45:15.825Z,10.70
2022-12-24T02:48:01.698Z,10.70
2022-12-24T02:50:37.067Z,10.70
2022-12-24T02:53:11.861Z,10.80
2022-12-24T02:55:44.767Z,10.80
2022-12-24T02:58:25.465Z,10.80
2022-12-24T03:01:16.229Z,10.80
2022-12-24T03:04:08.999Z,10.70
2022-12-24T03:06:48.180Z,10.80
2022-12-24T03:09:24.789Z,10.70
2022-12-24T03:12:01.263Z,10.70
2022-12-24T03:14:35.987Z,10.80
2022-12-24T03:17:18.007Z,10.70
2022-12-24T03:19:52.944Z,10.90
2022-12-24T03:22:24.291Z,10.70
2022-12-24T03:24:54.915Z,10.70
2022-12-24T03:27:28.358Z,10.70
2022-12-24T03:30:00.149Z,10.70
2022-12-24T03:32:31.371Z,10.70
2022-12-24T03:35:09.533Z,10.70
2022-12-24T03:37:43.394Z,10.70
2022-12-24T03:40:14.295Z,10.70
2022-12-24T03:42:50.421Z,10.70
2022-12-24T03:45:28.975Z,10.70
2022-12-24T03:47:58.588Z,10.70
2022-12-24T03:50:32.664Z,10.80
2022-12-24T03:53:03.905Z,10.80
2022-12-24T03:55:34.853Z,10.80
2022-12-24T03:58:06.415Z,10.80
2022-12-24T04:00:48.534Z,10.80
2022-12-24T04:03:31.591Z,10.70
2022-12-24T04:06:15.254Z,10.70
2022-12-24T04:08:47.407Z,10.70
2022-12-24T04:11:18.814Z,10.70
2022-12-24T04:13:51.708Z,10.80
2022-12-24T04:16:34.590Z,10.70
2022-12-24T04:19:04.665Z,10.70
2022-12-24T04:21:35.386Z,10.70
2022-12-24T04:24:13.078Z,10.70
2022-12-24T04:26:53.623Z,10.70
2022-12-24T04:29:23.630Z,10.70
2022-12-24T04:31:58.616Z,10.70
2022-12-24T04:34:30.294Z,10.70
2022-12-24T04:37:04.174Z,10.70
2022-12-24T04:39:39.162Z,10.70
2022-12-24T04:42:17.660Z,10.70
2022-12-24T04:45:02.570Z,10.70
2022-12-24T04:47:37.714Z,10.70
2022-12-24T04:50:08.922Z,10.80
2022-12-24T04:52:58.023Z,10.70
2022-12-24T04:55:47.420Z,10.70
2022-12-24T04:58:42.297Z,10.70
2022-12-24T05:01:46.474Z,10.70
2022-12-24T05:04:24.394Z,10.70
2022-12-24T05:07:09.214Z,10.70
2022-12-24T05:09:45.358Z,10.70
2022-12-24T05:12:29.484Z,10.70
2022-12-24T05:15:26.475Z,10.70
2022-12-24T05:18:02.569Z,10.70
2022-12-24T05:20:34.487Z,10.70
2022-12-24T05:23:37.042Z,10.60
2022-12-24T05:26:33.400Z,10.60
2022-12-24T05:29:32.732Z,10.60
2022-12-24T05:32:13.315Z,10.60
2022-12-24T05:34:44.987Z,10.50
2022-12-24T05:37:43.112Z,10.40
2022-12-24T05:40:20.306Z,10.30
2022-12-24T05:45:46.774Z,10.20
2022-12-24T05:48:31.141Z,10.20
2022-12-24T05:51:04.579Z,10.10
2022-12-24T05:53:38.350Z,10.10
2022-12-24T05:56:11.182Z,10.00
2022-12-24T05:58:49.005Z,10.00
2022-12-24T06:01:47.083Z,10.00
2022-12-24T06:04:32.392Z,9.90
2022-12-24T06:07:14.632Z,9.90
2022-12-24T06:09:56.136Z,9.90
2022-12-24T06:12:40.180Z,9.90
2022-12-24T06:15:30.744Z,9.90
2022-12-24T06:18:22.020Z,9.90
2022-12-24T06:21:00.291Z,9.90
2022-12-24T06:23:45.514Z,10.00
2022-12-24T06:26:23.023Z,9.90
2022-12-24T06:28:53.381Z,9.90
2022-12-24T06:31:35.425Z,9.90
2022-12-24T06:34:16.127Z,9.90
2022-12-24T06:36:59.159Z,9.90
2022-12-24T06:39:55.415Z,9.90
2022-12-24T06:42:29.636Z,9.80
2022-12-24T06:45:12.975Z,9.80
2022-12-24T06:47:45.966Z,9.80
2022-12-24T06:50:21.230Z,9.80
2022-12-24T06:53:03.385Z,9.70
2022-12-24T06:55:41.872Z,9.70
2022-12-24T06:58:16.805Z,9.70
2022-12-24T07:00:52.223Z,9.70
2022-12-24T07:03:33.507Z,9.70
2022-12-24T07:06:07.604Z,9.70
2022-12-24T07:09:11.285Z,9.70
2022-12-24T07:11:43.653Z,9.60
2022-12-24T07:17:16.046Z,9.60
2022-12-24T07:19:57.403Z,9.50
2022-12-24T07:22:28.943Z,9.50
2022-12-24T07:25:02.384Z,9.40
2022-12-24T07:27:38.182Z,9.40
2022-12-24T07:30:25.570Z,9.30
2022-12-24T07:33:02.843Z,9.30
2022-12-24T07:35:55.485Z,9.30
2022-12-24T07:38:31.321Z,9.20
2022-12-24T07:41:10.044Z,9.20
2022-12-24T07:43:50.408Z,9.20
2022-12-24T07:46:26.892Z,9.20
2022-12-24T07:49:04.436Z,9.20
2022-12-24T07:52:03.199Z,9.20
2022-12-24T07:54:42.098Z,9.20
2022-12-24T07:57:28.539Z,9.20
2022-12-24T08:00:07.170Z,9.30
2022-12-24T08:02:53.577Z,9.30
2022-12-24T08:05:43.469Z,9.30
2022-12-24T08:09:04.706Z,9.30
2022-12-24T08:11:37.651Z,9.40
2022-12-24T08:14:11.771Z,9.40
2022-12-24T08:16:56.735Z,9.40
2022-12-24T08:19:36.111Z,9.50
2022-12-24T08:22:13.100Z,9.50
2022-12-24T08:24:58.071Z,9.60
2022-12-24T08:27:32.253Z,9.60
2022-12-24T08:30:28.439Z,9.70
2022-12-24T08:33:05.294Z,9.70
2022-12-24T08:35:45.891Z,9.70
2022-12-24T08:38:29.594Z,9.70
2022-12-24T08:41:06.536Z,9.70
2022-12-24T08:43:55.078Z,9.70
2022-12-24T08:46:41.915Z,9.70
2022-12-24T08:49:27.610Z,9.70
2022-12-24T08:52:13.862Z,9.70
2022-12-24T08:55:08.677Z,9.60
2022-12-24T08:57:49.545Z,9.60
2022-12-24T09:00:34.328Z,9.70
2022-12-24T09:03:08.380Z,9.70
2022-12-24T09:05:54.117Z,9.80
2022-12-24T09:08:44.227Z,9.90
2022-12-24T09:11:26.346Z,9.90
2022-12-24T09:14:12.887Z,9.90
2022-12-24T09:16:49.435Z,9.90
2022-12-24T09:19:21.882Z,10.00
2022-12-24T09:22:00.893Z,10.10
2022-12-24T09:25:00.325Z,10.20
2022-12-24T09:27:39.886Z,10.20
2022-12-24T09:30:36.405Z,10.20
2022-12-24T09:33:31.339Z,10.20
2022-12-24T09:36:22.635Z,10.10
2022-12-24T09:39:14.112Z,10.10
2022-12-24T09:41:50.795Z,10.10
2022-12-24T09:44:37.178Z,10.10
2022-12-24T09:47:13.319Z,10.10
2022-12-24T09:50:20.305Z,10.10
2022-12-24T09:53:03.986Z,10.10
2022-12-24T09:56:02.167Z,10.20
2022-12-24T09:58:34.800Z,10.20
2022-12-24T10:01:40.681Z,10.20
2022-12-24T10:07:39.349Z,10.30
2022-12-24T10:10:43.783Z,10.40
2022-12-24T10:13:20.925Z,10.70
2022-12-24T10:16:01.567Z,10.60
2022-12-24T10:18:53.102Z,10.60
2022-12-24T10:21:43.013Z,10.50
2022-12-24T10:24:52.554Z,10.50
2022-12-24T10:27:44.233Z,10.60
2022-12-24T10:30:30.642Z,10.80
2022-12-24T10:33:03.969Z,10.70
2022-12-24T10:35:40.877Z,10.70
2022-12-24T10:38:25.844Z,10.70
2022-12-24T10:41:26.847Z,10.60
2022-12-24T10:44:03.351Z,10.60
2022-12-24T10:46:37.734Z,10.60
2022-12-24T10:49:25.705Z,10.60
2022-12-24T10:52:01.035Z,10.60
2022-12-24T10:54:39.758Z,10.60
2022-12-24T10:57:50.201Z,10.60
2022-12-24T11:00:35.561Z,10.60
2022-12-24T11:03:12.857Z,10.70
2022-12-24T11:05:51.275Z,10.80
2022-12-24T11:08:45.010Z,10.80
2022-12-24T11:11:42.775Z,10.80
2022-12-24T11:14:22.150Z,10.90
2022-12-24T11:17:09.379Z,10.90
2022-12-24T11:31:43.694Z,11.10
2022-12-24T11:34:47.770Z,11.10
2022-12-24T11:37:34.163Z,11.10
2022-12-24T11:40:07.923Z,11.20
2022-12-24T11:42:52.393Z,11.20
2022-12-24T11:45:27.594Z,11.30
2022-12-24T11:51:30.494Z,11.60
2022-12-24T11:54:19.283Z,11.70
2022-12-24T11:56:54.475Z,11.70
2022-12-24T11:59:29.025Z,11.60
2022-12-24T12:02:10.846Z,11.50
2022-12-24T12:04:58.170Z,11.50
2022-12-24T12:07:44.613Z,11.50
2022-12-24T12:13:16.316Z,11.40
2022-12-24T12:16:18.514Z,11.50
2022-12-24T12:19:41.188Z,11.50
2022-12-24T12:22:27.445Z,11.50
2022-12-24T12:25:05.998Z,11.50
2022-12-24T12:28:00.773Z,11.60
2022-12-24T12:33:30.485Z,11.70
2022-12-24T12:36:03.768Z,11.60
2022-12-24T12:38:53.369Z,11.60
2022-12-24T12:41:41.418Z,11.60
2022-12-24T12:44:53.150Z,11.70
2022-12-24T12:47:44.872Z,11.70
2022-12-24T12:50:37.353Z,11.70
2022-12-24T12:53:30.319Z,11.70
2022-12-24T12:56:17.353Z,11.70
2022-12-24T13:01:42.301Z,11.40
2022-12-24T13:04:55.228Z,11.60
2022-12-24T13:07:53.514Z,11.70
2022-12-24T13:10:40.713Z,11.70
2022-12-24T13:13:35.281Z,11.60
2022-12-24T13:16:16.762Z,11.60
2022-12-24T13:19:10.351Z,11.60
2022-12-24T13:21:54.656Z,11.50
2022-12-24T13:24:51.474Z,11.40
2022-12-24T13:27:28.426Z,11.20
2022-12-24T13:30:08.768Z,11.10
2022-12-24T13:32:57.526Z,11.00
2022-12-24T13:35:48.273Z,10.90
2022-12-24T13:38:46.489Z,10.90
2022-12-24T13:41:41.416Z,10.80
2022-12-24T13:44:27.610Z,10.80
2022-12-24T13:47:00.900Z,10.80
2022-12-24T13:49:44.564Z,10.80
2022-12-24T13:52:45.085Z,10.80
2022-12-24T13:55:20.394Z,10.70
2022-12-24T13:58:10.319Z,10.80
2022-12-24T14:01:01.605Z,10.70
2022-12-24T14:03:38.834Z,10.70
2022-12-24T14:06:17.206Z,10.70
2022-12-24T14:08:52.732Z,10.70
2022-12-24T14:11:29.111Z,10.80
2022-12-24T14:14:24.878Z,10.80
2022-12-24T14:17:09.358Z,10.80
2022-12-24T14:19:44.775Z,10.80
2022-12-24T14:22:32.945Z,10.80
2022-12-24T14:25:04.745Z,10.70
2022-12-24T14:27:53.239Z,10.70
2022-12-24T14:30:36.136Z,10.70
2022-12-24T14:33:13.087Z,10.70
2022-12-24T14:35:45.686Z,10.70
2022-12-24T14:38:20.884Z,10.70
2022-12-24T14:41:01.194Z,10.70
2022-12-24T14:43:56.872Z,10.70
2022-12-24T14:46:49.879Z,10.80
2022-12-24T14:49:37.037Z,10.80
2022-12-24T14:52:30.734Z,10.80
2022-12-24T14:55:11.306Z,10.70
2022-12-24T14:57:49.512Z,10.70
2022-12-24T15:00:25.700Z,10.60
2022-12-24T15:02:56.634Z,10.60
2022-12-24T15:05:50.963Z,10.60
2022-12-24T15:08:24.737Z,10.60
2022-12-24T15:10:58.362Z,10.60
2022-12-24T15:13:37.876Z,10.50
2022-12-24T15:16:20.941Z,10.50
2022-12-24T15:19:00.387Z,10.50
2022-12-24T15:21:50.181Z,10.50
2022-12-24T15:27:42.638Z,10.30
2022-12-24T15:30:21.981Z,10.30
2022-12-24T15:33:02.346Z,10.20
2022-12-24T15:35:50.676Z,10.20
2022-12-24T15:38:40.069Z,10.20
2022-12-24T15:41:23.066Z,10.20
2022-12-24T15:43:56.859Z,10.20
2022-12-24T15:46:53.027Z,10.20
2022-12-24T15:49:38.159Z,10.10
2022-12-24T15:52:14.757Z,10.10
2022-12-24T15:54:58.706Z,10.00
2022-12-24T15:57:39.074Z,10.00
2022-12-24T16:00:29.678Z,9.90
2022-12-24T16:03:29.897Z,9.90
2022-12-24T16:06:15.295Z,9.80
2022-12-24T16:08:48.234Z,9.80
2022-12-24T16:11:33.899Z,9.80
2022-12-24T16:14:24.396Z,9.70
2022-12-24T16:17:10.071Z,9.70
2022-12-24T16:19:54.627Z,9.70
2022-12-24T16:22:46.033Z,9.60
2022-12-24T16:25:25.862Z,9.60
2022-12-24T16:28:04.659Z,9.50
2022-12-24T16:30:48.117Z,9.50
2022-12-24T16:33:28.912Z,9.40
2022-12-24T16:36:03.277Z,9.40
2022-12-24T16:38:54.157Z,9.30
2022-12-24T16:41:29.056Z,9.30
2022-12-24T16:43:59.484Z,9.30
2022-12-24T16:46:36.133Z,9.20
2022-12-24T16:49:08.246Z,9.20
2022-12-24T16:51:51.460Z,9.20
2022-12-24T16:54:44.232Z,9.20
2022-12-24T16:57:17.045Z,9.10
2022-12-24T16:59:48.257Z,9.10
2022-12-24T17:02:31.269Z,9.00
2022-12-24T17:05:08.404Z,9.00
2022-12-24T17:07:43.571Z,9.00
2022-12-24T17:10:13.265Z,9.00
2022-12-24T17:12:43.291Z,8.90
2022-12-24T17:15:29.950Z,8.90
2022-12-24T17:18:11.653Z,8.90
2022-12-24T17:20:51.657Z,8.80
2022-12-24T17:23:23.445Z,8.80
2022-12-24T17:26:14.465Z,8.80
2022-12-24T17:28:50.053Z,8.80
2022-12-24T17:31:34.375Z,8.80
2022-12-24T17:34:16.119Z,8.70
2022-12-24T17:37:16.414Z,8.80
2022-12-24T17:39:50.478Z,8.70
2022-12-24T17:42:29.084Z,8.70
2022-12-24T17:44:59.675Z,8.70
2022-12-24T17:47:40.237Z,8.60
2022-12-24T17:50:29.904Z,8.70
2022-12-24T17:53:10.321Z,8.70
2022-12-24T17:55:46.635Z,8.70
2022-12-24T17:58:18.848Z,8.70
2022-12-24T18:00:53.682Z,8.70
2022-12-24T18:03:29.447Z,8.80
2022-12-24T18:06:15.760Z,8.70
2022-12-24T18:08:55.758Z,8.70
2022-12-24T18:11:29.355Z,8.70
2022-12-24T18:14:10.648Z,8.60
2022-12-24T18:16:43.852Z,8.60
2022-12-24T18:19:22.700Z,8.50
2022-12-24T18:21:54.215Z,8.60
2022-12-24T18:24:24.221Z,8.50
2022-12-24T18:26:56.913Z,8.50
2022-12-24T18:29:29.568Z,8.50
2022-12-24T18:32:13.094Z,8.40
2022-12-24T18:34:46.266Z,8.40
2022-12-24T18:37:24.779Z,8.40
2022-12-24T18:40:01.350Z,8.40
2022-12-24T18:42:36.412Z,8.40
2022-12-24T18:45:07.242Z,8.30
2022-12-24T18:47:47.357Z,8.30
2022-12-24T18:50:28.898Z,8.30
2022-12-24T18:53:08.171Z,8.20
2022-12-24T18:55:38.115Z,8.20
2022-12-24T18:58:14.338Z,8.20
2022-12-24T19:00:50.607Z,8.20
2022-12-24T19:03:23.956Z,8.20
2022-12-24T19:06:04.166Z,8.10
2022-12-24T19:09:05.437Z,8.10
2022-12-24T19:11:49.550Z,8.10
2022-12-24T19:14:27.562Z,8.10
2022-12-24T19:17:11.229Z,8.10
2022-12-24T19:19:57.313Z,8.10
2022-12-24T19:22:43.698Z,8.10
2022-12-24T19:25:19.356Z,8.00
2022-12-24T19:28:10.726Z,8.00
2022-12-24T19:36:16.699Z,8.00
2022-12-24T19:42:07.732Z,7.90
2022-12-24T19:44:48.403Z,7.90
2022-12-24T19:47:24.971Z,7.90
2022-12-24T19:50:16.428Z,7.90
2022-12-24T19:53:05.469Z,7.90
2022-12-24T19:55:47.161Z,7.90
2022-12-24T19:58:36.742Z,7.90
2022-12-24T20:01:15.139Z,7.90
2022-12-24T20:03:48.662Z,7.80
2022-12-24T20:06:23.103Z,7.80
2022-12-24T20:09:19.826Z,7.70
2022-12-24T20:15:10.641Z,7.70
2022-12-24T20:17:44.801Z,7.70
2022-12-24T20:20:37.423Z,7.60
2022-12-24T20:23:20.099Z,7.60
2022-12-24T20:25:50.141Z,7.50
2022-12-24T20:28:21.440Z,7.50
2022-12-24T20:30:55.998Z,7.50
2022-12-24T20:36:25.479Z,7.40
2022-12-24T20:47:57.955Z,7.30
2022-12-24T20:50:36.486Z,7.30
2022-12-24T20:53:11.165Z,7.30
2022-12-24T20:55:57.617Z,7.30
2022-12-24T20:58:52.749Z,7.30
2022-12-24T21:01:32.167Z,7.30
2022-12-24T21:04:17.198Z,7.20
2022-12-24T21:06:50.272Z,7.10
2022-12-24T21:12:36.268Z,7.10
2022-12-24T21:15:12.064Z,7.00
2022-12-24T21:17:43.342Z,7.00
2022-12-24T21:20:19.770Z,7.00
2022-12-24T21:23:04.161Z,7.00
2022-12-24T21:25:48.760Z,7.00
2022-12-24T21:28:34.697Z,6.90
2022-12-24T21:31:24.619Z,6.90
2022-12-24T21:33:57.547Z,6.90
2022-12-24T21:39:23.037Z,6.90
2022-12-24T21:41:58.408Z,6.80
2022-12-24T21:44:36.807Z,6.90
2022-12-24T21:47:27.803Z,6.90
2022-12-24T21:50:24.644Z,6.80
2022-12-24T21:53:27.294Z,6.80
2022-12-24T21:56:14.091Z,6.80
2022-12-24T21:58:57.059Z,6.80
2022-12-24T22:01:42.986Z,6.80
2022-12-24T22:04:51.024Z,6.80
2022-12-24T22:10:45.441Z,6.90
2022-12-24T22:13:51.787Z,6.80
2022-12-24T22:16:26.876Z,6.80
2022-12-24T22:19:00.771Z,6.80
2022-12-24T22:22:04.425Z,6.80
2022-12-24T22:24:55.748Z,6.70
2022-12-24T22:27:26.304Z,6.70
2022-12-24T22:30:11.266Z,6.70
2022-12-24T22:32:55.459Z,6.70
2022-12-24T22:35:25.711Z,6.70
2022-12-24T22:40:45.598Z,6.60
2022-12-24T22:43:29.806Z,6.60
2022-12-24T22:46:05.420Z,6.60
2022-12-24T22:48:49.521Z,6.60
2022-12-24T22:51:50.675Z,6.60
2022-12-24T22:54:29.004Z,6.60
2022-12-24T22:57:03.896Z,6.70
2022-12-24T22:59:43.475Z,6.70
2022-12-24T23:02:25.791Z,6.70
2022-12-24T23:05:01.929Z,6.70
2022-12-24T23:07:52.905Z,6.70
2022-12-24T23:10:32.682Z,6.70
2022-12-24T23:13:20.290Z,6.70
2022-12-24T23:18:54.040Z,6.70
2022-12-24T23:21:37.418Z,6.70
2022-12-24T23:24:12.424Z,6.70
2022-12-24T23:27:00.600Z,6.60
2022-12-24T23:29:35.931Z,6.70
2022-12-24T23:32:13.852Z,6.60
2022-12-24T23:34:43.774Z,6.70
2022-12-24T23:37:38.202Z,6.70
2022-12-24T23:40:21.507Z,6.60
2022-12-24T23:42:52.525Z,6.70
2022-12-24T23:45:22.863Z,6.70
2022-12-24T23:50:47.481Z,6.60
2022-12-24T23:53:30.287Z,6.60
2022-12-24T23:56:06.292Z,6.60
2022-12-24T23:59:12.076Z,6.80
